Terminal Aerodrome Forecast
Issued by NWS Twin Cities, MN

Home | Current Version | Previous Version | Text Only | Print | Product List | Glossary On
Versions: 1 2 3 4 5 6 7 8 9 10 11 12 13 14 15 16 17 18 19 20 21 22 23 24 25 26 27 28 29 30 31
000
FTUS43 KMPX 250551 CCA
TAFMSP
TAF COR
KMSP 250551Z 2506/2612 28007KT P6SM VCSH BKN015 OVC090
     FM250900 35006KT 6SM -RA BR OVC012
     FM251800 36007KT 6SM BR VCSH OVC020=

USA.gov is the U.S. government's official web portal to all federal, state and local government web resources and services.